Time;durP1;ratioP1;P1;durP2;ratioP2;P2;SDS_P1;SDS_P2;PMS_P1;PMS_P2;Temp;Humidity;BMP_temperature;BMP_pressure;BME280_temperature;BME280_humidity;BME280_pressure;Samples;Min_cycle;Max_cycle;Signal;HPM_P1;HPM_P2
2023/06/09 07:23:23;;;;;;;14.23;9.38;;;;;;;-145.79;51.93;76783.81;5279624;28;20398;-78
2023/06/09 07:25:55;;;;;;;17.92;10.65;;;;;;;-145.79;51.89;76764.75;5280324;28;20032;-78
2023/06/09 07:28:26;;;;;;;14.68;10.45;;;;;;;-145.79;51.83;76756.28;5280330;28;20029;-71
2023/06/09 07:30:57;;;;;;;18.85;10.43;;;;;;;-145.79;51.78;76743.56;5260125;28;20120;-70
2023/06/09 07:33:32;;;;;;;13.40;9.50;;;;;;;-145.79;50.86;76739.31;5259113;28;20055;-70
2023/06/09 07:36:03;;;;;;;15.57;10.40;;;;;;;-145.79;50.94;76732.97;5261702;28;20032;-69
2023/06/09 07:38:35;;;;;;;12.73;10.05;;;;;;;-145.79;50.66;76716.00;5278857;28;20029;-68
2023/06/09 07:41:06;;;;;;;13.18;9.70;;;;;;;-145.79;50.64;76716.00;5271993;28;20099;-69
2023/06/09 07:43:38;;;;;;;10.13;8.85;;;;;;;-145.79;50.45;76703.28;5279624;28;20480;-69
2023/06/09 07:46:10;;;;;;;11.55;9.27;;;;;;;-145.79;50.48;76707.53;5272962;28;20040;-69
2023/06/09 07:48:42;;;;;;;12.63;8.98;;;;;;;-145.79;50.39;76682.09;5261911;28;20021;-68
2023/06/09 07:51:14;;;;;;;12.20;10.18;;;;;;;-145.79;50.23;76677.84;5264460;28;20043;-68
2023/06/09 07:53:46;;;;;;;14.85;9.05;;;;;;;-145.79;49.91;76660.91;5262664;28;20445;-67
2023/06/09 07:56:17;;;;;;;12.13;9.27;;;;;;;-145.79;50.10;76660.91;5266163;28;20048;-69
2023/06/09 07:58:49;;;;;;;9.75;8.00;;;;;;;-145.79;49.95;76643.94;5272674;28;20049;-69
2023/06/09 08:01:21;;;;;;;12.88;8.77;;;;;;;-145.79;49.47;76637.59;5257954;28;20025;-69
2023/06/09 08:03:54;;;;;;;10.35;7.88;;;;;;;-145.79;49.15;76622.75;5263160;28;20047;-69
2023/06/09 08:06:25;;;;;;;11.20;9.32;;;;;;;-145.79;48.72;76610.03;5272732;28;20044;-68
2023/06/09 08:08:57;;;;;;;12.07;9.25;;;;;;;-145.79;49.21;76601.56;5271773;28;20017;-69
2023/06/09 08:11:28;;;;;;;11.90;9.65;;;;;;;-145.79;48.99;76588.84;5268832;28;20041;-69
2023/06/09 08:13:59;;;;;;;10.55;8.63;;;;;;;-145.79;49.10;76567.66;5258954;28;20039;-69
2023/06/09 08:16:31;;;;;;;10.35;8.68;;;;;;;-145.79;48.18;76559.19;5262561;28;20060;-68
2023/06/09 08:19:02;;;;;;;10.63;8.88;;;;;;;-145.79;47.78;76554.94;5275693;28;20024;-69
2023/06/09 08:21:33;;;;;;;11.65;8.10;;;;;;;-145.79;48.00;76538.00;5259216;28;20045;-69
2023/06/09 08:24:05;;;;;;;14.00;9.95;;;;;;;-145.79;47.44;76529.50;5257654;28;20029;-69
2023/06/09 08:26:36;;;;;;;10.98;8.20;;;;;;;-145.79;47.41;76512.56;5256976;28;20021;-68
2023/06/09 08:29:10;;;;;;;14.93;10.18;;;;;;;-145.79;47.38;76512.56;5269648;28;20021;-68
2023/06/09 08:31:42;;;;;;;13.85;9.52;;;;;;;-145.79;46.82;76499.84;5263398;28;20029;-68
2023/06/09 08:34:13;;;;;;;10.32;7.97;;;;;;;-145.79;46.47;76478.66;5250411;28;20080;-68
2023/06/09 08:36:44;;;;;;;10.00;7.78;;;;;;;-145.79;46.12;76474.41;5253324;28;20028;-68
2023/06/09 08:39:16;;;;;;;9.73;8.18;;;;;;;-145.79;46.20;76457.47;5244294;28;20461;-68
2023/06/09 08:41:51;;;;;;;12.98;7.30;;;;;;;-145.79;45.78;76448.97;5243116;28;20033;-68
2023/06/09 08:44:26;;;;;;;10.60;8.05;;;;;;;-145.79;45.09;76438.38;5245745;28;20059;-68
2023/06/09 08:47:01;;;;;;;12.23;8.68;;;;;;;-145.79;44.94;76444.75;5250451;28;20017;-68
2023/06/09 08:49:34;;;;;;;9.73;7.97;;;;;;;-145.79;45.19;76432.03;5243200;28;20030;-69
2023/06/09 08:52:06;;;;;;;10.85;7.50;;;;;;;-145.79;45.05;76421.44;5260620;28;20063;-69
2023/06/09 08:54:40;;;;;;;10.25;7.70;;;;;;;-145.79;44.73;76427.78;5263936;28;20044;-68
2023/06/09 08:57:12;;;;;;;9.70;8.57;;;;;;;-145.79;44.37;76406.59;5264217;28;20025;-69
2023/06/09 08:59:46;;;;;;;11.13;7.80;;;;;;;-145.79;44.18;76389.66;5253712;28;20087;-68
2023/06/09 09:02:18;;;;;;;10.05;8.32;;;;;;;-145.79;43.61;76370.56;5243641;28;20060;-70
2023/06/09 09:04:49;;;;;;;9.75;7.70;;;;;;;-145.79;43.84;76359.97;5246577;28;20030;-69
2023/06/09 09:07:21;;;;;;;11.90;8.55;;;;;;;-145.79;43.39;76353.63;5246523;28;20061;-69
2023/06/09 09:09:52;;;;;;;9.55;7.88;;;;;;;-145.79;43.12;76338.78;5260918;28;20048;-69
2023/06/09 09:12:24;;;;;;;10.68;8.63;;;;;;;-145.79;42.59;76336.66;5264165;28;20032;-70
2023/06/09 09:14:56;;;;;;;9.88;8.02;;;;;;;-145.79;42.62;76315.47;5263575;28;20032;-71
2023/06/09 09:17:27;;;;;;;11.25;8.10;;;;;;;-145.79;42.76;76313.34;5263277;28;20025;-69
2023/06/09 09:20:06;;;;;;;11.75;8.63;;;;;;;-145.79;42.79;76300.66;5248595;28;20389;-69
2023/06/09 09:22:50;;;;;;;11.40;9.38;;;;;;;-145.79;43.31;76296.41;5243076;28;20076;-69
2023/06/09 09:25:27;;;;;;;9.73;8.18;;;;;;;-145.79;42.87;76279.47;5242893;28;20053;-69
2023/06/09 09:28:09;;;;;;;11.05;7.53;;;;;;;-145.79;41.83;76273.09;5243014;28;20515;-71
2023/06/09 09:30:46;;;;;;;15.10;8.55;;;;;;;-145.79;41.55;76258.25;5242572;28;20026;-69
2023/06/09 09:33:23;;;;;;;11.38;6.93;;;;;;;-145.79;41.65;76241.31;5242697;28;20060;-71
2023/06/09 09:35:57;;;;;;;11.80;8.00;;;;;;;-145.79;41.48;76228.59;5243906;28;20085;-69
2023/06/09 09:38:30;;;;;;;13.20;8.90;;;;;;;-145.79;41.65;76220.13;5249620;28;20031;-70
2023/06/09 09:41:04;;;;;;;11.27;7.90;;;;;;;-145.79;40.70;76215.88;5262951;28;20083;-70
2023/06/09 09:43:35;;;;;;;9.65;7.15;;;;;;;-145.79;40.95;76213.75;5261216;28;20017;-66
2023/06/09 09:46:07;;;;;;;9.60;7.75;;;;;;;-145.79;40.23;76192.56;5247581;28;20029;-68
2023/06/09 09:48:39;;;;;;;13.23;8.10;;;;;;;-145.79;40.39;76192.56;5242589;28;20022;-74
2023/06/09 09:51:11;;;;;;;8.63;7.70;;;;;;;-145.79;40.17;76184.09;5241518;28;20487;-67
2023/06/09 09:53:46;;;;;;;12.63;8.68;;;;;;;-145.79;40.49;76167.16;5243274;28;20029;-67
2023/06/09 09:56:22;;;;;;;8.85;7.57;;;;;;;-145.79;39.70;76167.16;5242190;28;20469;-68
2023/06/09 09:58:54;;;;;;;10.07;6.88;;;;;;;-145.79;39.58;76160.78;5242870;28;20132;-68
2023/06/09 10:01:27;;;;;;;8.05;7.25;;;;;;;-145.79;40.39;76150.19;5242224;28;20021;-67
2023/06/09 10:03:59;;;;;;;11.45;7.63;;;;;;;-145.79;40.40;76122.66;5242264;28;20033;-67
2023/06/09 10:06:32;;;;;;;8.20;7.40;;;;;;;-145.79;39.39;76139.59;5241576;28;20021;-72
2023/06/09 10:09:04;;;;;;;11.13;6.75;;;;;;;-145.79;39.34;76109.94;5245691;28;20457;-72
2023/06/09 10:11:37;;;;;;;10.57;8.73;;;;;;;-145.79;39.28;76120.53;5262125;28;20112;-75
2023/06/09 10:14:09;;;;;;;12.68;8.07;;;;;;;-145.79;39.61;76109.94;5262200;28;20021;-74
2023/06/09 10:16:42;;;;;;;7.15;6.45;;;;;;;-145.79;39.13;76097.22;5254560;28;20372;-73
2023/06/09 10:19:17;;;;;;;7.28;6.13;;;;;;;-145.79;38.71;76105.69;5240618;28;20054;-74
2023/06/09 10:21:52;;;;;;;7.57;6.80;;;;;;;-145.79;38.84;76069.69;5245971;28;20133;-73
2023/06/09 10:24:24;;;;;;;13.82;6.20;;;;;;;-145.79;38.39;76065.44;5260740;28;20052;-74
2023/06/09 10:26:56;;;;;;;9.15;6.57;;;;;;;-145.79;37.69;76056.97;5254050;28;20037;-73
2023/06/09 10:29:27;;;;;;;8.65;6.35;;;;;;;-145.79;37.00;76044.25;5241236;28;20534;-73
2023/06/09 10:32:00;;;;;;;8.18;5.90;;;;;;;-145.79;36.98;76033.66;5241343;28;20500;-73
2023/06/09 10:34:34;;;;;;;8.25;6.50;;;;;;;-145.79;36.77;76025.19;5240986;28;20108;-73
2023/06/09 10:37:10;;;;;;;7.13;6.33;;;;;;;-145.79;36.62;76031.53;5240924;28;20041;-73
2023/06/09 10:39:55;;;;;;;9.25;6.75;;;;;;;-145.79;37.29;76031.53;5241467;28;20108;-74
2023/06/09 10:42:32;;;;;;;;;;;;;;;-145.79;37.42;76035.78;5241403;28;20091;-75
2023/06/09 10:45:13;;;;;;;9.20;7.15;;;;;;;-145.79;36.97;76023.06;5252258;28;19924;-75
2023/06/09 10:47:47;;;;;;;8.20;7.50;;;;;;;-145.79;36.93;76004.00;5260683;28;20047;-74
2023/06/09 10:50:30;;;;;;;20.10;17.95;;;;;;;-145.79;37.16;75993.41;5261111;28;20036;-74
2023/06/09 10:53:02;;;;;;;8.63;7.25;;;;;;;-145.79;36.57;75987.03;5259823;28;20053;-73
2023/06/09 10:55:33;;;;;;;7.10;6.40;;;;;;;-145.79;36.40;75984.91;5261385;28;20024;-75
2023/06/09 10:58:35;;;;;;;7.93;6.15;;;;;;;-145.79;36.54;75974.31;5259005;28;20028;-72
2023/06/09 11:01:07;;;;;;;9.40;7.78;;;;;;;-145.79;36.22;75976.44;5252025;28;20063;-73
2023/06/09 11:03:38;;;;;;;12.63;10.27;;;;;;;-145.79;36.57;75974.31;5256973;28;20079;-72
2023/06/09 11:06:10;;;;;;;9.55;8.48;;;;;;;-145.79;36.17;75961.63;5261668;28;20078;-72
2023/06/09 11:09:08;;;;;;;7.38;6.60;;;;;;;-145.79;35.65;75942.53;5261486;28;20045;-73
2023/06/09 11:11:51;;;;;;;10.27;9.23;;;;;;;-145.79;35.25;75923.47;5261770;28;20029;-73
2023/06/09 11:14:44;;;;;;;10.77;8.25;;;;;;;-145.79;35.10;75919.22;5245236;28;20059;-73
2023/06/09 11:17:25;;;;;;;8.65;6.97;;;;;;;-145.79;35.10;75902.28;5240973;28;20076;-73
2023/06/09 11:20:06;;;;;;;7.13;6.40;;;;;;;-145.79;34.95;75893.81;5241041;28;20104;-72
2023/06/09 11:25:17;;;;;;;9.98;6.00;;;;;;;-145.79;34.54;75895.94;5240920;28;20034;-72
2023/06/09 11:28:09;;;;;;;8.73;7.20;;;;;;;-145.79;34.47;75864.16;5241044;28;20031;-72
2023/06/09 11:31:01;;;;;;;7.93;6.53;;;;;;;-145.79;34.78;75855.66;5240503;28;20296;-73
2023/06/09 11:33:46;;;;;;;7.30;6.38;;;;;;;-145.79;34.80;75836.59;5255068;28;20104;-72
2023/06/09 11:36:23;;;;;;;8.00;6.50;;;;;;;-145.79;35.02;75851.44;5241290;28;20040;-74
2023/06/09 11:39:00;;;;;;;7.82;6.22;;;;;;;-145.79;35.21;75847.19;5244457;28;20025;-73
2023/06/09 11:41:32;;;;;;;7.15;6.40;;;;;;;-145.79;34.96;75838.72;5256427;28;20021;-74
2023/06/09 11:44:03;;;;;;;8.60;6.50;;;;;;;-145.79;35.05;75842.97;5251544;28;20047;-72
2023/06/09 11:46:38;;;;;;;8.32;6.28;;;;;;;-145.79;34.97;75817.53;5240678;28;20021;-72
2023/06/09 11:49:09;;;;;;;9.83;7.17;;;;;;;-145.79;34.50;75823.88;5243185;28;20036;-72
2023/06/09 11:52:06;;;;;;;7.82;7.10;;;;;;;-145.79;34.93;75796.34;5255883;28;20034;-72
2023/06/09 11:54:45;;;;;;;9.38;8.15;;;;;;;-145.79;34.76;75804.81;5240903;28;20506;-71
2023/06/09 11:57:17;;;;;;;7.55;6.85;;;;;;;-145.79;35.03;75813.28;5240048;28;20034;-70
2023/06/09 11:59:53;;;;;;;17.73;15.32;;;;;;;-145.79;34.64;75783.63;5239708;28;20018;-70
2023/06/09 12:02:27;;;;;;;9.40;6.70;;;;;;;-145.79;34.16;75787.88;5240246;28;20029;-71
2023/06/09 12:04:59;;;;;;;6.93;6.32;;;;;;;-145.79;33.88;75762.44;5240280;28;20049;-72
2023/06/09 12:07:31;;;;;;;8.65;7.30;;;;;;;-145.79;33.67;75777.28;5255426;28;20047;-70
2023/06/09 12:10:03;;;;;;;9.88;7.78;;;;;;;-145.79;33.94;75785.75;5247589;28;20095;-72
2023/06/09 12:12:48;;;;;;;9.10;7.22;;;;;;;-145.79;34.46;75773.03;5244035;28;20025;-73
2023/06/09 12:15:22;;;;;;;7.50;6.90;;;;;;;-145.79;34.22;75766.69;5244565;28;20040;-72
2023/06/09 12:17:57;;;;;;;6.95;6.30;;;;;;;-145.79;33.81;75766.69;5242850;28;20022;-71
2023/06/09 12:20:30;;;;;;;9.35;7.10;;;;;;;-145.79;33.14;75768.78;5242531;28;20046;-72
2023/06/09 12:23:12;;;;;;;7.97;6.30;;;;;;;-145.79;33.03;75762.44;5243219;28;20046;-73
2023/06/09 12:25:51;;;;;;;6.75;5.93;;;;;;;-145.79;33.16;75762.44;5247589;28;20028;-71
2023/06/09 12:28:26;;;;;;;7.43;6.53;;;;;;;-145.79;32.96;75747.59;5261464;28;20437;-73
2023/06/09 12:31:10;;;;;;;7.35;6.57;;;;;;;-145.79;33.03;75732.78;5243677;28;20049;-74
2023/06/09 12:33:48;;;;;;;8.82;6.78;;;;;;;-145.79;32.60;75707.34;5243328;28;20044;-73
2023/06/09 12:36:20;;;;;;;7.30;5.90;;;;;;;-145.79;31.89;75690.41;5244160;28;20362;-72
2023/06/09 12:38:51;;;;;;;7.13;5.78;;;;;;;-145.79;32.24;75677.69;5243908;28;20025;-72
2023/06/09 12:41:22;;;;;;;7.20;5.68;;;;;;;-145.79;31.47;75673.44;5243088;28;20323;-72
2023/06/09 12:43:56;;;;;;;5.63;5.13;;;;;;;-145.79;31.69;75669.22;5252580;28;20068;-72
2023/06/09 12:46:36;;;;;;;5.57;5.07;;;;;;;-145.79;31.25;75667.09;5260597;28;20358;-73
2023/06/09 12:49:09;;;;;;;5.57;5.05;;;;;;;-145.79;31.47;75658.63;5243927;28;20472;-73
2023/06/09 12:51:41;;;;;;;6.13;5.10;;;;;;;-145.79;31.07;75652.25;5243543;28;20035;-72
2023/06/09 12:54:13;;;;;;;5.70;5.07;;;;;;;-145.79;31.16;75648.03;5243171;28;20021;-73
2023/06/09 12:56:44;;;;;;;5.80;5.30;;;;;;;-145.79;31.16;75648.03;5243946;28;20479;-74
2023/06/09 12:59:16;;;;;;;5.63;5.10;;;;;;;-145.79;31.24;75648.03;5243018;28;20123;-73
2023/06/09 13:01:47;;;;;;;12.45;11.38;;;;;;;-145.79;30.99;75622.59;5261389;28;20111;-72
2023/06/09 13:04:22;;;;;;;7.72;6.30;;;;;;;-145.79;30.96;75614.13;5263983;28;20025;-72
2023/06/09 13:06:54;;;;;;;9.20;5.05;;;;;;;-145.79;30.76;75626.84;5263917;28;20025;-73
2023/06/09 13:09:25;;;;;;;4.88;4.43;;;;;;;-145.79;30.46;75622.59;5263659;28;20100;-73
2023/06/09 13:11:57;;;;;;;5.20;4.80;;;;;;;-145.79;30.97;75622.59;5264145;28;20021;-72
2023/06/09 13:14:28;;;;;;;5.55;4.75;;;;;;;-145.79;30.71;75597.19;5263794;28;20025;-72
2023/06/09 13:17:00;;;;;;;5.78;5.13;;;;;;;-145.79;30.88;75601.41;5261675;28;20032;-71
2023/06/09 13:19:31;;;;;;;5.68;5.15;;;;;;;-145.79;30.52;75599.31;5263428;28;20079;-72
2023/06/09 13:22:02;;;;;;;5.57;5.07;;;;;;;-145.79;30.77;75584.47;5263057;28;20087;-71
2023/06/09 13:24:34;;;;;;;7.35;4.70;;;;;;;-145.79;30.57;75571.75;5263917;28;20032;-72
2023/06/09 13:27:06;;;;;;;6.72;5.35;;;;;;;-145.79;29.92;75567.53;5263452;28;20116;-72
2023/06/09 13:29:37;;;;;;;7.28;6.72;;;;;;;-145.79;29.76;75556.94;5262958;28;20071;-72
2023/06/09 13:32:08;;;;;;;10.93;9.88;;;;;;;-145.79;30.06;75571.75;5261280;28;20037;-72
2023/06/09 13:34:40;;;;;;;5.75;4.97;;;;;;;-145.79;30.30;75535.75;5256226;28;20036;-72
2023/06/09 13:37:11;;;;;;;7.03;5.35;;;;;;;-145.79;30.12;75542.09;5262566;28;20495;-71
2023/06/09 13:39:43;;;;;;;6.45;5.05;;;;;;;-145.79;29.83;75518.78;5262863;28;20021;-71
2023/06/09 13:42:14;;;;;;;5.30;4.78;;;;;;;-145.79;29.77;75514.56;5263152;28;20385;-71
2023/06/09 13:44:45;;;;;;;5.60;5.10;;;;;;;-145.79;29.94;75503.97;5263360;28;20029;-71
2023/06/09 13:47:17;;;;;;;6.70;6.10;;;;;;;-145.79;30.24;75514.56;5263285;28;20056;-71
2023/06/09 13:49:49;;;;;;;6.03;5.25;;;;;;;-145.79;30.04;75503.97;5262253;28;20035;-72
2023/06/09 13:52:20;;;;;;;10.23;9.30;;;;;;;-145.79;29.94;75470.06;5243928;28;20112;-71
2023/06/09 13:54:52;;;;;;;5.80;5.20;;;;;;;-145.79;29.48;75465.81;5242410;28;20045;-71
2023/06/09 13:57:23;;;;;;;5.20;4.70;;;;;;;-145.79;29.38;75476.41;5241683;28;20025;-73
2023/06/09 13:59:54;;;;;;;5.75;5.05;;;;;;;-145.79;29.24;75451.00;5242442;28;20464;-71
2023/06/09 14:02:26;;;;;;;4.85;4.45;;;;;;;-145.79;29.58;75440.41;5242184;28;20036;-71
2023/06/09 14:04:59;;;;;;;6.43;4.75;;;;;;;-145.79;28.94;75421.34;5255748;28;20083;-70
2023/06/09 14:07:31;;;;;;;5.38;4.68;;;;;;;-145.79;28.88;75427.69;5258417;28;20025;-71
2023/06/09 14:10:04;;;;;;;8.90;4.72;;;;;;;-145.79;28.86;75444.63;5242050;28;20030;-71
2023/06/09 14:12:47;;;;;;;5.30;4.60;;;;;;;-145.79;29.12;75474.28;5241383;28;20547;-71
2023/06/09 14:15:18;;;;;;;4.63;4.10;;;;;;;-145.79;28.94;75478.53;5242023;28;20033;-71
2023/06/09 14:17:50;;;;;;;7.25;4.47;;;;;;;-145.79;29.10;75457.34;5241976;28;20091;-71
2023/06/09 14:20:22;;;;;;;5.93;5.43;;;;;;;-145.79;29.86;75451.00;5257572;28;20043;-71
2023/06/09 14:22:56;;;;;;;5.95;5.45;;;;;;;-145.79;29.76;75429.81;5261294;28;20033;-68
2023/06/09 14:25:27;;;;;;;8.00;5.88;;;;;;;-145.79;30.13;75417.09;5250639;28;20447;-70
2023/06/09 14:27:59;;;;;;;6.13;5.63;;;;;;;-145.79;30.36;75436.16;5241893;28;20017;-70
2023/06/09 14:30:30;;;;;;;6.07;5.55;;;;;;;-145.79;29.79;75442.53;5241502;28;20550;-72
2023/06/09 14:33:02;;;;;;;5.43;4.80;;;;;;;-145.79;29.15;75482.78;5240643;28;20076;-72
2023/06/09 14:35:33;;;;;;;6.68;5.40;;;;;;;-145.79;29.06;75461.59;5241621;28;20037;-72
2023/06/09 14:38:05;;;;;;;5.88;4.70;;;;;;;-145.79;29.15;75440.41;5248134;28;20465;-71
2023/06/09 14:40:36;;;;;;;11.40;4.40;;;;;;;-145.79;28.62;75431.94;5262105;28;20109;-69
2023/06/09 14:43:09;;;;;;;6.72;4.70;;;;;;;-145.79;28.68;75434.03;5245328;28;20080;-70
2023/06/09 14:45:40;;;;;;;5.95;4.90;;;;;;;-145.79;28.79;75406.50;5241416;28;20384;-72
2023/06/09 14:48:12;;;;;;;8.80;5.20;;;;;;;-145.79;28.71;75408.63;5241061;28;20030;-68
2023/06/09 14:50:47;;;;;;;4.72;4.40;;;;;;;-145.79;29.08;75402.25;5251086;28;20150;-71
2023/06/09 14:53:18;;;;;;;5.88;4.80;;;;;;;-145.79;28.95;75389.56;5257671;28;20033;-70
2023/06/09 14:55:50;;;;;;;5.40;4.90;;;;;;;-145.79;29.21;75374.72;5241485;28;20032;-71
2023/06/09 14:58:21;;;;;;;5.57;5.07;;;;;;;-145.79;28.88;75351.41;5258289;28;20114;-71
2023/06/09 15:00:52;;;;;;;4.72;4.32;;;;;;;-145.79;29.47;75368.38;5254212;28;20057;-73
2023/06/09 15:03:24;;;;;;;6.68;5.57;;;;;;;-145.79;28.71;75383.19;5241050;28;20055;-71
2023/06/09 15:05:56;;;;;;;9.23;8.43;;;;;;;-145.79;28.57;75385.31;5240928;28;20481;-71
2023/06/09 15:08:27;;;;;;;5.30;4.70;;;;;;;-145.79;28.83;75406.50;5239823;28;20079;-71
2023/06/09 15:10:58;;;;;;;5.05;4.45;;;;;;;-145.79;29.22;75427.69;5240924;28;20099;-71
2023/06/09 15:13:30;;;;;;;5.70;5.10;;;;;;;-145.79;29.43;75444.63;5241210;28;20077;-72
2023/06/09 15:16:02;;;;;;;6.75;5.25;;;;;;;-145.79;29.01;75448.88;5242119;28;20032;-70
2023/06/09 15:18:33;;;;;;;6.50;4.63;;;;;;;-145.79;29.47;75436.16;5241299;28;20022;-68
2023/06/09 15:21:04;;;;;;;5.07;4.57;;;;;;;-145.79;29.47;75436.16;5240673;28;20071;-70
2023/06/09 15:23:36;;;;;;;5.57;5.07;;;;;;;-145.79;29.36;75440.41;5240332;28;20029;-70
2023/06/09 15:26:07;;;;;;;4.93;4.53;;;;;;;-145.79;29.39;75434.03;5251022;28;20419;-70
2023/06/09 15:28:39;;;;;;;5.05;4.55;;;;;;;-145.79;29.08;75431.94;5260878;28;20154;-70
2023/06/09 15:31:10;;;;;;;5.13;4.72;;;;;;;-145.79;29.47;75436.16;5258780;28;20119;-71
2023/06/09 15:33:41;;;;;;;6.00;4.72;;;;;;;-145.79;29.17;75412.84;5251395;28;20385;-70
2023/06/09 15:36:12;;;;;;;4.35;4.03;;;;;;;-145.79;29.44;75412.84;5240317;28;20033;-70
2023/06/09 15:38:47;;;;;;;5.10;4.60;;;;;;;-145.79;29.33;75412.84;5240767;28;20029;-69
2023/06/09 15:41:19;;;;;;;5.88;4.25;;;;;;;-145.79;29.00;75395.91;5240535;28;20029;-69
2023/06/09 15:43:52;;;;;;;4.95;4.28;;;;;;;-145.79;28.69;75398.03;5245169;28;20036;-69
2023/06/09 15:46:23;;;;;;;6.85;4.82;;;;;;;-145.79;28.95;75376.84;5261267;28;20032;-71
2023/06/09 15:48:55;;;;;;;5.43;4.32;;;;;;;-145.79;29.32;75391.66;5264811;28;20472;-70
2023/06/09 15:51:27;;;;;;;5.53;4.03;;;;;;;-145.79;28.91;75389.56;5245209;28;20030;-70
2023/06/09 15:53:59;;;;;;;4.93;4.53;;;;;;;-145.79;29.27;75402.25;5244767;28;20479;-72
2023/06/09 15:56:30;;;;;;;4.50;4.10;;;;;;;-145.79;29.04;75404.38;5244123;28;20099;-70
2023/06/09 15:59:02;;;;;;;4.72;4.22;;;;;;;-145.79;28.90;75398.03;5244451;28;20472;-69
2023/06/09 16:01:33;;;;;;;4.63;4.22;;;;;;;-145.79;28.99;75387.44;5244544;28;20108;-68
2023/06/09 16:04:04;;;;;;;5.38;4.72;;;;;;;-145.79;28.99;75398.03;5248267;28;20424;-74
2023/06/09 16:06:36;;;;;;;6.20;4.70;;;;;;;-145.79;29.00;75398.03;5261235;28;20040;-75
2023/06/09 16:09:07;;;;;;;5.72;4.85;;;;;;;-145.79;29.10;75402.25;5247881;28;20083;-74
2023/06/09 16:11:42;;;;;;;5.68;4.53;;;;;;;-145.79;29.07;75398.03;5243713;28;20052;-73
2023/06/09 16:14:13;;;;;;;4.50;3.92;;;;;;;-145.79;28.84;75376.84;5243652;28;20029;-76
2023/06/09 16:16:44;;;;;;;5.32;4.70;;;;;;;-145.79;28.79;75376.84;5243582;28;20366;-76
2023/06/09 16:19:16;;;;;;;5.97;4.10;;;;;;;-145.79;29.26;75368.38;5243191;28;20018;-76
2023/06/09 16:25:41;;;;;;;6.72;5.03;;;;;;;-145.79;29.74;75381.09;5208152;28;20501;-82
2023/06/09 16:28:12;;;;;;;6.47;5.85;;;;;;;-145.79;29.84;75378.97;5251548;28;20048;-69
2023/06/09 16:30:44;;;;;;;7.82;5.20;;;;;;;-145.79;30.21;75393.78;5261592;28;20136;-67
2023/06/09 16:33:18;;;;;;;6.05;4.65;;;;;;;-145.79;29.94;75410.75;5246128;28;20020;-72
2023/06/09 16:35:49;;;;;;;6.20;4.90;;;;;;;-145.79;30.66;75431.94;5264920;28;20025;-72
2023/06/09 16:38:23;;;;;;;6.75;5.55;;;;;;;-145.79;30.43;75457.34;5264507;28;20204;-73
2023/06/09 16:40:54;;;;;;;6.07;4.73;;;;;;;-145.79;30.45;75448.88;5256460;28;20025;-73
2023/06/09 16:43:26;;;;;;;5.30;4.68;;;;;;;-145.79;30.40;75461.59;5243463;28;20124;-72
2023/06/09 16:45:57;;;;;;;6.93;5.07;;;;;;;-145.79;30.50;75446.75;5243524;28;20022;-73
2023/06/09 16:48:28;;;;;;;7.00;5.43;;;;;;;-145.79;30.42;75419.22;5246650;28;20025;-73
2023/06/09 16:51:01;;;;;;;5.38;4.85;;;;;;;-145.79;30.65;75431.94;5264160;28;20074;-74
2023/06/09 16:53:32;;;;;;;7.00;5.85;;;;;;;-145.79;31.07;75423.44;5263360;28;20104;-74
